Time;durP1;ratioP1;P1;durP2;ratioP2;P2;SDS_P1;SDS_P2;PMS_P1;PMS_P2;Temp;Humidity;BMP_temperature;BMP_pressure;BME280_temperature;BME280_humidity;BME280_pressure;Samples;Min_cycle;Max_cycle;Signal;HPM_P1;HPM_P2
2021/08/27 00:01:14;;;;;;;3.33;2.83;;;;;;;10.50;100.00;97727.56;5023082;28;20232;-69
2021/08/27 00:03:44;;;;;;;3.43;3.13;;;;;;;10.49;100.00;97727.75;5021452;28;20204;-69
2021/08/27 00:06:12;;;;;;;3.10;2.90;;;;;;;10.47;100.00;97732.41;5024977;28;20212;-69
2021/08/27 00:08:41;;;;;;;3.10;2.90;;;;;;;10.52;100.00;97730.88;5021964;28;21350;-68
2021/08/27 00:11:09;;;;;;;3.77;2.73;;;;;;;10.49;100.00;97731.22;5027408;28;20328;-69
2021/08/27 00:13:37;;;;;;;3.80;3.10;;;;;;;10.54;100.00;97739.47;5026284;28;20216;-69
2021/08/27 00:16:05;;;;;;;3.53;3.30;;;;;;;10.56;100.00;97726.06;5017716;28;20204;-69
2021/08/27 00:18:33;;;;;;;3.40;3.10;;;;;;;10.53;100.00;97721.94;5028589;28;20262;-69
2021/08/27 00:21:03;;;;;;;3.87;2.97;;;;;;;10.59;100.00;97720.44;5024451;28;20247;-68
2021/08/27 00:23:31;;;;;;;9.77;8.87;;;;;;;10.54;100.00;97714.81;5030985;28;20207;-68
2021/08/27 00:25:59;;;;;;;5.73;5.13;;;;;;;10.52;100.00;97722.94;5033735;28;20215;-68
2021/08/27 00:28:27;;;;;;;3.77;3.30;;;;;;;10.56;100.00;97729.53;5028457;28;20243;-67
2021/08/27 00:30:57;;;;;;;9.33;5.47;;;;;;;10.58;100.00;97732.03;5029225;28;20256;-68
2021/08/27 00:33:25;;;;;;;3.97;3.67;;;;;;;10.60;100.00;97727.38;5028542;28;20208;-68
2021/08/27 00:35:54;;;;;;;3.33;2.90;;;;;;;10.58;100.00;97721.44;5029773;28;20266;-68
2021/08/27 00:38:23;;;;;;;4.13;3.40;;;;;;;10.66;100.00;97728.53;5027230;28;20235;-67
2021/08/27 00:40:51;;;;;;;3.00;2.80;;;;;;;10.66;100.00;97731.19;5025612;28;20231;-67
2021/08/27 00:43:19;;;;;;;3.17;2.97;;;;;;;10.68;100.00;97726.53;5027859;28;20212;-68
2021/08/27 00:45:47;;;;;;;3.63;3.00;;;;;;;10.73;100.00;97731.31;5027345;28;20214;-68
2021/08/27 00:48:15;;;;;;;8.73;7.00;;;;;;;10.68;100.00;97724.69;5028651;28;20280;-69
2021/08/27 00:50:43;;;;;;;9.37;6.90;;;;;;;10.71;100.00;97724.34;5026013;28;20231;-68
2021/08/27 00:53:11;;;;;;;6.40;5.00;;;;;;;10.71;100.00;97729.66;5031459;28;20660;-68
2021/08/27 00:55:41;;;;;;;5.90;4.63;;;;;;;10.71;100.00;97731.50;5026228;28;20235;-68
2021/08/27 00:58:09;;;;;;;6.23;5.30;;;;;;;10.72;100.00;97730.50;5033726;28;20250;-68
2021/08/27 01:00:37;;;;;;;3.93;3.20;;;;;;;10.76;100.00;97741.56;5025186;28;20251;-67
2021/08/27 01:03:05;;;;;;;3.80;3.50;;;;;;;10.78;100.00;97735.09;5023917;28;20208;-68
2021/08/27 01:05:34;;;;;;;15.97;8.97;;;;;;;10.79;100.00;97735.91;5029701;28;20219;-68
2021/08/27 01:08:07;;;;;;;5.67;5.07;;;;;;;10.80;100.00;97742.91;5021018;28;20661;-68
2021/08/27 01:10:41;;;;;;;7.17;4.27;;;;;;;10.83;100.00;97740.72;5025963;28;20248;-67
2021/08/27 01:13:13;;;;;;;15.53;11.67;;;;;;;10.84;100.00;97744.19;5031687;28;20215;-68
2021/08/27 01:15:47;;;;;;;4.20;3.73;;;;;;;10.87;100.00;97743.84;5026679;28;20208;-68
2021/08/27 01:18:21;;;;;;;3.60;3.30;;;;;;;10.85;100.00;97741.38;5029988;28;20663;-68
2021/08/27 01:21:20;;;;;;;3.27;2.97;;;;;;;10.81;100.00;97742.72;5032027;28;20565;-68
2021/08/27 01:23:50;;;;;;;3.50;3.20;;;;;;;10.85;100.00;97735.25;5031689;28;20587;-69
2021/08/27 01:26:24;;;;;;;3.73;3.43;;;;;;;10.86;100.00;97740.38;5031736;28;20246;-68
2021/08/27 01:28:52;;;;;;;3.60;3.27;;;;;;;10.80;100.00;97738.41;5027151;28;20213;-68
2021/08/27 01:31:29;;;;;;;5.03;3.27;;;;;;;10.84;100.00;97738.91;5030904;28;20238;-68
2021/08/27 01:34:03;;;;;;;6.90;3.30;;;;;;;10.80;100.00;97742.91;5026301;28;20676;-68
2021/08/27 01:36:34;;;;;;;4.60;3.10;;;;;;;10.83;100.00;97738.06;5028115;28;20199;-68
2021/08/27 01:39:03;;;;;;;3.60;3.30;;;;;;;10.84;100.00;97738.91;5028211;28;20207;-68
2021/08/27 01:41:32;;;;;;;4.23;3.73;;;;;;;10.82;100.00;97736.41;5026283;28;20251;-69
2021/08/27 01:44:03;;;;;;;3.43;3.03;;;;;;;10.78;100.00;97735.09;5030750;28;20219;-68
2021/08/27 01:46:32;;;;;;;4.57;3.47;;;;;;;10.80;100.00;97732.28;5023552;28;20577;-68
2021/08/27 01:49:01;;;;;;;6.10;3.60;;;;;;;10.81;100.00;97740.06;5026075;28;20200;-69
2021/08/27 01:51:29;;;;;;;3.93;3.63;;;;;;;10.82;100.00;97740.91;5031234;28;20215;-68
2021/08/27 01:53:59;;;;;;;4.10;3.50;;;;;;;10.79;100.00;97727.97;5030815;28;20208;-67
2021/08/27 01:56:27;;;;;;;3.83;3.00;;;;;;;10.79;100.00;97733.25;5024825;28;20217;-68
2021/08/27 01:58:55;;;;;;;4.30;3.57;;;;;;;10.83;100.00;97737.25;5027959;28;20271;-68
2021/08/27 02:01:25;;;;;;;4.20;3.90;;;;;;;10.80;100.00;97734.94;5026770;28;20243;-68
2021/08/27 02:03:54;;;;;;;4.13;3.73;;;;;;;10.80;100.00;97732.28;5028091;28;20869;-69
2021/08/27 02:06:23;;;;;;;7.50;4.07;;;;;;;10.78;100.00;97744.88;5025560;28;20391;-68
2021/08/27 02:08:52;;;;;;;8.20;4.40;;;;;;;10.77;100.00;97744.06;5025256;28;20215;-68
2021/08/27 02:11:21;;;;;;;4.70;4.27;;;;;;;10.75;100.00;97745.22;5028534;28;20228;-69
2021/08/27 02:13:49;;;;;;;6.83;4.23;;;;;;;10.81;100.00;97739.25;5024362;28;20200;-68
2021/08/27 02:16:18;;;;;;;4.93;4.43;;;;;;;10.85;100.00;97741.38;5027968;28;20605;-69
2021/08/27 02:18:46;;;;;;;5.03;4.63;;;;;;;10.91;100.00;97744.31;5029615;28;20242;-68
2021/08/27 02:21:14;;;;;;;5.40;4.97;;;;;;;10.86;100.00;97731.59;5031621;28;20299;-68
2021/08/27 02:23:43;;;;;;;4.67;4.20;;;;;;;10.97;100.00;97730.38;5026006;28;20248;-68
2021/08/27 02:26:13;;;;;;;6.00;4.97;;;;;;;11.07;100.00;97732.81;5029349;28;20222;-68
2021/08/27 02:28:43;;;;;;;7.67;4.73;;;;;;;11.08;100.00;97737.97;5025658;28;20200;-68
2021/08/27 02:31:12;;;;;;;4.93;4.63;;;;;;;11.00;100.00;97738.81;5026378;28;20584;-68
2021/08/27 02:33:44;;;;;;;6.43;5.00;;;;;;;11.10;100.00;97729.81;5026522;28;20747;-68
2021/08/27 02:36:14;;;;;;;5.70;5.13;;;;;;;11.06;100.00;97732.00;5029533;28;20212;-68
2021/08/27 02:38:43;;;;;;;5.33;4.93;;;;;;;10.97;100.00;97730.38;5027202;28;20648;-67
2021/08/27 02:41:11;;;;;;;6.47;5.20;;;;;;;10.86;100.00;97734.25;5028022;28;20239;-69
2021/08/27 02:43:39;;;;;;;6.10;5.70;;;;;;;10.94;100.00;97739.50;5024769;28;20211;-68
2021/08/27 02:46:08;;;;;;;5.40;4.90;;;;;;;10.94;100.00;97741.31;5024411;28;20248;-68
2021/08/27 02:48:36;;;;;;;7.30;5.10;;;;;;;10.82;100.00;97740.91;5029353;28;20723;-68
2021/08/27 02:51:09;;;;;;;7.97;6.00;;;;;;;10.87;100.00;97743.84;5021782;28;20235;-68
2021/08/27 02:53:40;;;;;;;5.80;5.30;;;;;;;10.83;100.00;97743.38;5027921;28;20203;-68
2021/08/27 02:56:13;;;;;;;6.23;5.63;;;;;;;10.74;100.00;97743.56;5030283;28;20215;-68
2021/08/27 02:58:47;;;;;;;6.40;5.90;;;;;;;10.80;100.00;97743.72;5033145;28;20204;-68
2021/08/27 03:01:18;;;;;;;6.60;5.90;;;;;;;10.75;100.00;97754.00;5024881;28;20929;-68
2021/08/27 03:03:49;;;;;;;6.33;5.83;;;;;;;10.64;100.00;97751.72;5031399;28;20212;-68
2021/08/27 03:06:21;;;;;;;5.87;5.37;;;;;;;10.68;100.00;97747.75;5026210;28;20253;-68
2021/08/27 03:08:53;;;;;;;7.53;5.77;;;;;;;10.72;100.00;97743.75;5013113;28;20304;-67
2021/08/27 03:11:24;;;;;;;6.27;5.50;;;;;;;10.56;100.00;97745.44;5023166;28;20227;-66
2021/08/27 03:13:57;;;;;;;6.03;5.43;;;;;;;10.56;100.00;97749.91;5026257;28;20196;-68
2021/08/27 03:16:28;;;;;;;7.87;6.20;;;;;;;10.48;100.00;97744.66;5030666;28;20212;-67
2021/08/27 03:19:01;;;;;;;7.40;6.70;;;;;;;10.33;100.00;97747.94;5025191;28;20703;-68
2021/08/27 03:21:32;;;;;;;7.00;6.30;;;;;;;10.39;100.00;97744.63;5028795;28;20804;-68
2021/08/27 03:24:02;;;;;;;6.80;6.13;;;;;;;10.40;100.00;97742.84;5026004;28;20209;-67
2021/08/27 03:26:31;;;;;;;7.57;6.23;;;;;;;10.40;100.00;97741.00;5025681;28;20204;-67
2021/08/27 03:29:03;;;;;;;5.90;5.40;;;;;;;10.40;100.00;97742.84;5022589;28;20211;-68
2021/08/27 03:31:33;;;;;;;6.93;6.30;;;;;;;10.30;100.00;97742.16;5034439;28;20227;-68
2021/08/27 03:34:02;;;;;;;6.90;6.20;;;;;;;10.30;100.00;97729.75;5041592;28;20211;-68
2021/08/27 03:36:31;;;;;;;6.37;5.90;;;;;;;10.30;100.00;97736.88;5041163;28;20222;-68
2021/08/27 03:39:01;;;;;;;9.97;6.53;;;;;;;10.34;100.00;97736.34;5038680;28;20206;-68
2021/08/27 03:41:32;;;;;;;10.33;6.57;;;;;;;10.22;100.00;97732.41;5039304;28;20236;-69
2021/08/27 03:44:01;;;;;;;9.97;6.87;;;;;;;10.19;100.00;97730.91;5045384;28;20207;-67
2021/08/27 03:46:29;;;;;;;7.97;5.97;;;;;;;10.20;100.00;97737.03;5043920;28;20542;-68
2021/08/27 03:48:58;;;;;;;6.53;5.80;;;;;;;10.24;100.00;97735.72;5045837;28;20216;-67
2021/08/27 03:51:28;;;;;;;6.80;5.70;;;;;;;10.27;100.00;97740.66;5043936;28;20224;-68
2021/08/27 03:54:15;;;;;;;6.93;6.13;;;;;;;10.19;100.00;97741.50;5044325;28;20212;-67
2021/08/27 03:56:43;;;;;;;6.97;6.37;;;;;;;10.25;100.00;97742.66;5043107;28;20735;-67
2021/08/27 03:59:12;;;;;;;6.23;5.60;;;;;;;10.13;100.00;97740.38;5046221;28;20204;-68
2021/08/27 04:01:40;;;;;;;7.13;5.47;;;;;;;10.12;100.00;97743.16;5044102;28;20234;-68
2021/08/27 04:04:17;;;;;;;5.70;5.20;;;;;;;10.16;100.00;97735.72;5044980;28;20222;-68
2021/08/27 04:06:53;;;;;;;5.90;5.30;;;;;;;10.08;100.00;97750.66;5047641;28;20219;-68
2021/08/27 04:09:21;;;;;;;6.80;6.10;;;;;;;10.11;100.00;97739.72;5041937;28;20641;-67
2021/08/27 04:11:49;;;;;;;7.10;5.40;;;;;;;10.13;100.00;97748.31;5046143;28;20215;-68
2021/08/27 04:14:17;;;;;;;6.40;5.87;;;;;;;10.02;100.00;97751.28;5045794;28;20598;-68
2021/08/27 04:16:45;;;;;;;5.73;5.33;;;;;;;9.95;100.00;97751.13;5044050;28;20221;-69
2021/08/27 04:19:15;;;;;;;5.60;5.10;;;;;;;9.97;100.00;97753.59;5044993;28;20214;-69
2021/08/27 04:21:43;;;;;;;5.67;5.17;;;;;;;9.87;100.00;97755.59;5046034;28;20596;-69
2021/08/27 04:24:12;;;;;;;6.83;5.30;;;;;;;9.84;100.00;97754.09;5044132;28;20586;-70
2021/08/27 04:26:40;;;;;;;5.83;5.37;;;;;;;9.99;100.00;97755.09;5046614;28;20227;-69
2021/08/27 04:29:11;;;;;;;7.10;5.73;;;;;;;9.98;100.00;97753.44;5044858;28;20278;-70
2021/08/27 04:31:39;;;;;;;5.97;5.40;;;;;;;9.85;100.00;97756.59;5044340;28;20230;-67
2021/08/27 04:34:07;;;;;;;7.50;5.10;;;;;;;9.87;100.00;97758.25;5044392;28;20207;-67
2021/08/27 04:36:36;;;;;;;6.70;6.13;;;;;;;9.90;100.00;97753.47;5044894;28;20215;-68
2021/08/27 04:39:04;;;;;;;5.50;5.00;;;;;;;9.78;100.00;97755.59;5042240;28;20238;-67
2021/08/27 04:41:32;;;;;;;5.50;5.07;;;;;;;9.81;100.00;97760.56;5043431;28;20231;-67
2021/08/27 04:44:00;;;;;;;8.03;4.83;;;;;;;9.93;100.00;97760.22;5045936;28;20224;-67
2021/08/27 04:46:28;;;;;;;5.70;5.20;;;;;;;9.88;100.00;97759.91;5043393;28;20200;-68
2021/08/27 04:48:56;;;;;;;6.00;5.20;;;;;;;9.77;100.00;97764.53;5041150;28;20231;-68
2021/08/27 04:51:24;;;;;;;6.63;5.97;;;;;;;9.94;100.00;97764.53;5040171;28;20228;-68
2021/08/27 04:53:53;;;;;;;7.27;5.37;;;;;;;9.87;100.00;97766.19;5038064;28;20195;-68
2021/08/27 04:56:22;;;;;;;6.53;5.83;;;;;;;9.89;100.00;97764.19;5041946;28;20216;-69
2021/08/27 04:58:50;;;;;;;5.73;4.97;;;;;;;9.93;100.00;97763.72;5045774;28;20223;-69
2021/08/27 05:01:18;;;;;;;6.20;5.47;;;;;;;9.98;100.00;97765.84;5043913;28;20977;-68
2021/08/27 05:03:46;;;;;;;9.33;6.17;;;;;;;9.99;100.00;97763.03;5042142;28;20251;-68
2021/08/27 05:06:17;;;;;;;6.53;5.73;;;;;;;9.89;100.00;97761.56;5035614;28;20216;-72
2021/08/27 05:08:45;;;;;;;5.80;5.30;;;;;;;9.99;100.00;97755.09;5033931;28;20206;-67
2021/08/27 05:11:14;;;;;;;7.83;6.00;;;;;;;9.96;100.00;97765.19;5035265;28;20739;-68
2021/08/27 05:13:42;;;;;;;9.47;5.93;;;;;;;9.95;100.00;97766.19;5043831;28;20204;-68
2021/08/27 05:16:11;;;;;;;5.93;5.43;;;;;;;9.99;100.00;97770.16;5044466;28;20218;-71
2021/08/27 05:18:39;;;;;;;5.70;5.30;;;;;;;10.06;100.00;97768.50;5041888;28;20200;-67
2021/08/27 05:21:07;;;;;;;5.63;4.77;;;;;;;10.04;100.00;97767.00;5040311;28;21039;-68
2021/08/27 05:23:35;;;;;;;6.20;5.60;;;;;;;10.10;100.00;97772.47;5041859;28;20230;-68
2021/08/27 05:26:04;;;;;;;5.53;5.03;;;;;;;10.21;100.00;97768.66;5036184;28;20223;-68
2021/08/27 05:28:33;;;;;;;7.87;5.57;;;;;;;10.18;100.00;97773.47;5043778;28;20208;-68
2021/08/27 05:31:01;;;;;;;5.87;5.30;;;;;;;10.09;100.00;97780.56;5036500;28;20227;-69
2021/08/27 05:33:29;;;;;;;11.10;5.70;;;;;;;10.02;100.00;97780.41;5043097;28;20236;-68
2021/08/27 05:35:57;;;;;;;8.27;5.87;;;;;;;10.09;100.00;97789.38;5042846;28;20239;-70
2021/08/27 05:38:25;;;;;;;5.60;5.20;;;;;;;10.07;100.00;97791.34;5045054;28;20208;-69
2021/08/27 05:40:53;;;;;;;7.43;6.63;;;;;;;10.14;100.00;97802.94;5063147;28;20240;-72
2021/08/27 05:43:21;;;;;;;6.63;6.03;;;;;;;10.38;100.00;97795.13;5054324;28;20227;-69
2021/08/27 05:45:50;;;;;;;8.70;6.77;;;;;;;10.24;100.00;97804.56;5040036;28;20200;-69
2021/08/27 05:48:18;;;;;;;7.10;6.40;;;;;;;10.35;100.00;97798.13;5039672;28;20297;-68
2021/08/27 05:50:46;;;;;;;9.87;7.07;;;;;;;10.41;100.00;97795.63;5041994;28;20234;-69
2021/08/27 05:53:15;;;;;;;6.23;5.63;;;;;;;10.51;100.00;97795.47;5043298;28;20206;-69
2021/08/27 05:55:43;;;;;;;7.63;6.57;;;;;;;10.55;100.00;97799.41;5043510;28;20619;-70
2021/08/27 05:58:10;;;;;;;7.33;6.50;;;;;;;10.81;100.00;97794.91;5041075;28;20208;-70
2021/08/27 06:00:41;;;;;;;7.57;6.43;;;;;;;10.76;100.00;97800.72;5039343;28;20219;-70
2021/08/27 06:03:11;;;;;;;7.40;6.60;;;;;;;10.89;100.00;97794.03;5041553;28;20215;-69
2021/08/27 06:05:39;;;;;;;7.10;6.33;;;;;;;10.82;100.00;97799.22;5044578;28;20598;-70
2021/08/27 06:08:07;;;;;;;6.60;6.20;;;;;;;10.93;100.00;97796.19;5040759;28;20214;-71
2021/08/27 06:10:35;;;;;;;8.03;6.30;;;;;;;10.96;100.00;97790.53;5044530;28;20202;-71
2021/08/27 06:13:03;;;;;;;6.73;6.13;;;;;;;11.18;100.00;97792.59;5038816;28;20204;-70
2021/08/27 06:15:31;;;;;;;5.93;5.43;;;;;;;11.34;100.00;97795.16;5040079;28;20204;-69
2021/08/27 06:17:59;;;;;;;5.90;5.40;;;;;;;11.32;100.00;97799.00;5042958;28;20203;-70
2021/08/27 06:20:28;;;;;;;8.97;5.90;;;;;;;11.27;100.00;97789.75;5045356;28;20196;-70
2021/08/27 06:22:56;;;;;;;9.37;6.43;;;;;;;11.32;100.00;97797.16;5038495;28;20233;-72
2021/08/27 06:25:24;;;;;;;7.57;6.43;;;;;;;11.33;100.00;97795.34;5045635;28;20350;-69
2021/08/27 06:27:52;;;;;;;7.73;5.97;;;;;;;11.51;100.00;97797.75;5041506;28;20215;-68
2021/08/27 06:30:21;;;;;;;6.37;5.60;;;;;;;11.46;100.00;97795.59;5040827;28;20218;-69
2021/08/27 06:32:49;;;;;;;5.93;5.43;;;;;;;11.64;100.00;97791.88;5043406;28;20239;-70
2021/08/27 06:35:17;;;;;;;6.50;5.90;;;;;;;11.58;100.00;97793.38;5042976;28;20567;-69
2021/08/27 06:40:32;;;;;;;6.67;6.07;;;;;;;11.50;100.00;97782.84;5040719;28;20206;-69
2021/08/27 06:43:01;;;;;;;6.27;5.83;;;;;;;11.35;100.00;97790.72;5042120;28;20220;-69
2021/08/27 06:45:29;;;;;;;7.53;5.97;;;;;;;11.45;100.00;97788.66;5043395;28;20219;-69
2021/08/27 06:47:57;;;;;;;8.73;6.60;;;;;;;11.47;100.00;97797.25;5046478;28;20261;-71
2021/08/27 06:50:25;;;;;;;6.77;5.77;;;;;;;11.45;100.00;97793.97;5037016;28;20217;-70
2021/08/27 06:52:55;;;;;;;6.97;6.30;;;;;;;11.36;100.00;97801.13;5034793;28;20598;-68
2021/08/27 06:55:23;;;;;;;6.73;6.13;;;;;;;11.22;100.00;97799.22;5041505;28;20234;-72
2021/08/27 06:57:51;;;;;;;6.37;5.87;;;;;;;11.38;100.00;97799.16;5042818;28;20214;-72
2021/08/27 07:00:19;;;;;;;5.90;5.00;;;;;;;11.50;100.00;97809.38;5044775;28;20214;-72
2021/08/27 07:02:48;;;;;;;5.97;5.47;;;;;;;11.44;100.00;97808.22;5042155;28;20224;-73
2021/08/27 07:05:16;;;;;;;6.17;5.53;;;;;;;11.56;100.00;97809.50;5044084;28;20589;-73
2021/08/27 07:07:44;;;;;;;7.60;5.77;;;;;;;11.61;100.00;97813.47;5034251;28;20206;-73
2021/08/27 07:10:14;;;;;;;7.37;5.70;;;;;;;11.53;100.00;97819.63;5044355;28;20200;-73
2021/08/27 07:12:42;;;;;;;5.47;4.80;;;;;;;11.80;100.00;97814.84;5040763;28;20731;-73
2021/08/27 07:15:11;;;;;;;6.83;6.00;;;;;;;11.75;100.00;97815.34;5040178;28;20204;-71
2021/08/27 07:17:39;;;;;;;5.27;4.87;;;;;;;11.73;100.00;97812.03;5040564;28;20530;-72
2021/08/27 07:20:08;;;;;;;5.67;5.17;;;;;;;11.94;100.00;97829.19;5041629;28;20204;-72
2021/08/27 07:22:36;;;;;;;5.63;5.10;;;;;;;12.05;100.00;97818.16;5043080;28;20235;-72
2021/08/27 07:25:06;;;;;;;5.27;4.80;;;;;;;12.07;100.00;97831.25;5045997;28;20228;-72
2021/08/27 07:27:35;;;;;;;5.37;4.97;;;;;;;12.01;100.00;97819.53;5044694;28;20200;-72
2021/08/27 07:30:04;;;;;;;4.77;4.40;;;;;;;11.90;100.00;97839.31;5048281;28;20207;-72
2021/08/27 07:32:32;;;;;;;4.47;4.00;;;;;;;11.77;100.00;97831.94;5043559;28;20234;-72
2021/08/27 07:35:00;;;;;;;4.67;4.37;;;;;;;11.78;100.00;97828.28;5048060;28;20299;-71
2021/08/27 07:37:28;;;;;;;4.40;4.00;;;;;;;11.85;100.00;97833.72;5045531;28;20228;-73
2021/08/27 07:39:56;;;;;;;5.77;4.20;;;;;;;11.86;100.00;97827.41;5043635;28;20214;-71
2021/08/27 07:42:23;;;;;;;4.63;4.23;;;;;;;11.96;100.00;97830.63;5045917;28;20223;-70
2021/08/27 07:44:53;;;;;;;4.83;4.43;;;;;;;11.94;100.00;97834.50;5044919;28;20412;-73
2021/08/27 07:47:21;;;;;;;4.40;4.10;;;;;;;11.96;100.00;97835.13;5037191;28;20259;-71
2021/08/27 07:49:49;;;;;;;4.20;3.90;;;;;;;12.08;100.00;97828.44;5040629;28;20216;-72
2021/08/27 07:52:16;;;;;;;4.57;4.17;;;;;;;11.92;100.00;97831.16;5045597;28;20231;-72
2021/08/27 07:54:44;;;;;;;7.10;4.47;;;;;;;12.21;100.00;97835.81;5044179;28;20207;-71
2021/08/27 07:57:13;;;;;;;4.93;4.53;;;;;;;12.24;100.00;97837.25;5044774;28;20226;-73
2021/08/27 07:59:40;;;;;;;5.03;4.17;;;;;;;12.33;100.00;97841.53;5044530;28;20262;-71
2021/08/27 08:02:10;;;;;;;3.90;3.67;;;;;;;12.16;100.00;97848.81;5046091;28;20242;-72
2021/08/27 08:04:38;;;;;;;5.80;4.17;;;;;;;12.31;100.00;97838.19;5043859;28;20262;-74
2021/08/27 08:07:06;;;;;;;4.53;4.13;;;;;;;12.22;100.00;97841.94;5042867;28;20603;-72
2021/08/27 08:09:34;;;;;;;4.80;4.20;;;;;;;12.20;100.00;97850.09;5047442;28;20207;-72
2021/08/27 08:12:02;;;;;;;4.70;4.30;;;;;;;12.33;100.00;97835.38;5044913;28;20223;-72
2021/08/27 08:14:30;;;;;;;4.13;3.73;;;;;;;12.39;100.00;97838.16;5044479;28;20192;-72
2021/08/27 08:16:58;;;;;;;6.90;4.20;;;;;;;12.61;100.00;97840.94;5043601;28;20211;-71
2021/08/27 08:19:27;;;;;;;4.63;4.30;;;;;;;12.67;100.00;97842.03;5044412;28;20726;-70
2021/08/27 08:21:55;;;;;;;5.10;4.00;;;;;;;12.80;100.00;97842.25;5045379;28;20239;-71
2021/08/27 08:24:24;;;;;;;4.77;4.20;;;;;;;12.98;100.00;97846.38;5040036;28;20228;-72
2021/08/27 08:26:52;;;;;;;8.20;4.03;;;;;;;13.15;100.00;97847.03;5044707;28;20199;-73
2021/08/27 08:29:20;;;;;;;4.43;4.03;;;;;;;13.28;100.00;97844.53;5045065;28;20213;-71
2021/08/27 08:31:48;;;;;;;5.43;3.60;;;;;;;13.37;100.00;97845.28;5047206;28;20239;-72
2021/08/27 08:34:16;;;;;;;4.27;3.30;;;;;;;13.57;100.00;97842.03;5043618;28;20686;-73
2021/08/27 08:36:45;;;;;;;3.87;3.40;;;;;;;13.78;100.00;97838.59;5043017;28;20556;-72
2021/08/27 08:39:13;;;;;;;3.13;2.93;;;;;;;13.70;100.00;97836.88;5043578;28;20212;-72
2021/08/27 08:41:41;;;;;;;3.80;3.50;;;;;;;13.72;100.00;97834.00;5039583;28;20228;-73
2021/08/27 08:44:09;;;;;;;3.37;2.90;;;;;;;13.91;100.00;97839.75;5040091;28;20223;-73
2021/08/27 08:46:37;;;;;;;4.07;3.33;;;;;;;13.73;100.00;97843.66;5042784;28;20214;-71
2021/08/27 08:49:05;;;;;;;5.10;2.90;;;;;;;13.69;100.00;97837.91;5042776;28;20324;-74
2021/08/27 08:51:34;;;;;;;5.13;3.60;;;;;;;13.98;100.00;97843.31;5043254;28;20285;-72
2021/08/27 08:54:04;;;;;;;3.43;3.13;;;;;;;14.12;100.00;97837.09;5040920;28;20283;-73
2021/08/27 08:56:32;;;;;;;3.80;3.23;;;;;;;14.03;100.00;97843.56;5042088;28;20211;-71
2021/08/27 08:59:00;;;;;;;4.93;3.53;;;;;;;13.99;100.00;97843.09;5044192;28;20295;-71
2021/08/27 09:01:28;;;;;;;3.50;3.20;;;;;;;13.88;100.00;97840.94;5040175;28;20220;-71
2021/08/27 09:03:57;;;;;;;3.37;2.83;;;;;;;13.99;100.00;97834.31;5041847;28;20289;-71
2021/08/27 09:06:26;;;;;;;3.10;2.90;;;;;;;14.01;100.00;97840.25;5044965;28;20237;-73
2021/08/27 09:08:56;;;;;;;3.17;2.93;;;;;;;14.01;100.00;97837.59;5044174;28;20530;-71
2021/08/27 09:11:26;;;;;;;3.50;3.20;;;;;;;14.23;100.00;97829.63;5041591;28;20224;-72
2021/08/27 09:13:54;;;;;;;3.37;2.97;;;;;;;14.35;100.00;97833.41;5042434;28;20212;-71
2021/08/27 09:16:25;;;;;;;3.60;2.77;;;;;;;14.22;100.00;97841.28;5041434;28;20294;-70
2021/08/27 09:18:54;;;;;;;3.80;2.63;;;;;;;14.23;100.00;97840.28;5045288;28;20207;-71
2021/08/27 09:21:46;;;;;;;5.73;3.10;;;;;;;14.50;100.00;97837.81;5044144;28;20319;-71
2021/08/27 09:24:17;;;;;;;4.70;2.80;;;;;;;14.41;100.00;97831.81;5049889;28;20247;-72
2021/08/27 09:26:49;;;;;;;6.10;2.80;;;;;;;14.25;100.00;97840.91;5058918;28;20200;-72
2021/08/27 09:29:33;;;;;;;3.80;3.50;;;;;;;14.49;100.00;97837.00;5049742;28;20207;-72
2021/08/27 09:32:02;;;;;;;4.30;2.70;;;;;;;14.48;100.00;97832.69;5039409;28;20232;-72
2021/08/27 09:34:31;;;;;;;3.33;3.03;;;;;;;14.44;100.00;97839.44;5036832;28;20217;-71
2021/08/27 09:37:00;;;;;;;3.00;2.80;;;;;;;14.38;100.00;97838.34;5039123;28;20641;-71
2021/08/27 09:39:34;;;;;;;2.87;2.67;;;;;;;14.32;100.00;97839.13;5045038;28;20219;-73
2021/08/27 09:42:04;;;;;;;4.90;2.60;;;;;;;14.19;100.00;97848.63;5039529;28;20249;-72
2021/08/27 09:44:32;;;;;;;3.17;2.87;;;;;;;14.13;100.00;97838.72;5041211;28;20262;-71
2021/08/27 09:47:07;;;;;;;6.40;3.00;;;;;;;14.00;100.00;97849.28;5039076;28;20274;-71
2021/08/27 09:49:36;;;;;;;3.10;2.80;;;;;;;13.86;100.00;97842.97;5038251;28;20207;-72
2021/08/27 09:52:05;;;;;;;2.57;2.20;;;;;;;13.94;100.00;97840.19;5041900;28;20238;-71
2021/08/27 09:54:34;;;;;;;3.17;2.37;;;;;;;13.96;100.00;97845.34;5036874;28;20625;-72
2021/08/27 09:57:05;;;;;;;5.50;2.53;;;;;;;13.91;100.00;97847.75;5037056;28;20230;-73
2021/08/27 09:59:34;;;;;;;3.17;3.00;;;;;;;13.74;100.00;97845.31;5041140;28;20199;-71
2021/08/27 10:02:03;;;;;;;5.03;3.00;;;;;;;13.54;100.00;97851.25;5039338;28;20604;-70
2021/08/27 10:04:32;;;;;;;3.50;3.20;;;;;;;13.37;100.00;97844.44;5032121;28;20209;-72
2021/08/27 10:07:01;;;;;;;3.10;2.97;;;;;;;13.32;100.00;97856.47;5030636;28;20255;-71
2021/08/27 10:09:44;;;;;;;4.70;3.20;;;;;;;13.39;100.00;97848.56;5039332;28;20196;-70
2021/08/27 10:12:15;;;;;;;5.60;3.00;;;;;;;13.27;100.00;97848.22;5041283;28;20227;-71
2021/08/27 10:14:43;;;;;;;2.93;2.73;;;;;;;13.31;100.00;97849.50;5037236;28;20203;-69
2021/08/27 10:17:12;;;;;;;3.30;2.93;;;;;;;13.43;100.00;97843.72;5036618;28;20200;-72
2021/08/27 10:19:39;;;;;;;3.20;2.93;;;;;;;13.58;100.00;97846.34;5037861;28;20215;-72
2021/08/27 10:22:07;;;;;;;3.63;3.00;;;;;;;13.69;100.00;97848.56;5042082;28;20249;-72
2021/08/27 10:24:35;;;;;;;4.13;3.60;;;;;;;13.89;100.00;97847.94;5041599;28;20215;-72
2021/08/27 10:27:08;;;;;;;3.50;3.13;;;;;;;13.82;100.00;97850.50;5040744;28;20442;-72
2021/08/27 10:29:46;;;;;;;3.37;2.80;;;;;;;13.87;100.00;97848.13;5040165;28;20206;-72
2021/08/27 10:32:15;;;;;;;2.83;2.53;;;;;;;14.01;100.00;97840.25;5038100;28;20232;-71
2021/08/27 10:34:44;;;;;;;3.53;3.07;;;;;;;14.11;100.00;97842.63;5035547;28;20199;-70
2021/08/27 10:37:42;;;;;;;3.17;2.87;;;;;;;14.60;100.00;97835.66;5039838;28;20207;-71
2021/08/27 10:40:37;;;;;;;3.57;3.00;;;;;;;15.23;100.00;97836.69;5042137;28;20238;-71
2021/08/27 10:43:05;;;;;;;2.87;2.53;;;;;;;15.52;100.00;97840.06;5040188;28;20257;-71
2021/08/27 10:45:58;;;;;;;3.70;2.80;;;;;;;15.19;100.00;97830.91;5039085;28;20223;-71
2021/08/27 10:48:26;;;;;;;2.73;2.60;;;;;;;15.19;100.00;97826.41;5021536;28;20287;-71
2021/08/27 10:50:55;;;;;;;3.03;2.67;;;;;;;14.99;100.00;97828.13;5041766;28;20565;-71
2021/08/27 10:53:30;;;;;;;3.17;2.97;;;;;;;14.97;100.00;97825.69;5042947;28;20208;-70
2021/08/27 10:55:59;;;;;;;3.43;3.23;;;;;;;14.91;100.00;97829.09;5044609;28;20195;-71
2021/08/27 10:58:47;;;;;;;3.10;2.57;;;;;;;14.97;100.00;97825.69;5046111;28;20575;-70
2021/08/27 11:01:33;;;;;;;2.57;2.03;;;;;;;15.10;100.00;97830.22;5040214;28;20592;-71
2021/08/27 11:04:06;;;;;;;2.53;2.33;;;;;;;15.10;100.00;97822.22;5049451;28;20556;-70
2021/08/27 11:06:44;;;;;;;2.17;2.07;;;;;;;15.22;100.00;97824.34;5043656;28;20756;-71
2021/08/27 11:09:20;;;;;;;3.57;1.90;;;;;;;15.19;100.00;97821.06;5031647;28;20207;-70
2021/08/27 11:12:12;;;;;;;1.77;1.63;;;;;;;15.23;100.00;97829.47;5031981;28;20270;-71
2021/08/27 11:14:41;;;;;;;2.20;2.10;;;;;;;15.01;100.00;97829.59;5043249;28;20857;-70
2021/08/27 11:17:11;;;;;;;2.17;2.00;;;;;;;14.75;100.00;97830.22;5039122;28;20214;-71
2021/08/27 11:19:42;;;;;;;2.03;1.93;;;;;;;14.64;100.00;97828.91;5044072;28;20223;-71
2021/08/27 11:22:27;;;;;;;2.03;1.77;;;;;;;14.58;100.00;97835.00;5041060;28;20230;-70
2021/08/27 11:25:17;;;;;;;2.20;2.10;;;;;;;14.47;100.00;97834.50;5037729;28;20215;-71
2021/08/27 11:28:09;;;;;;;3.73;2.03;;;;;;;14.41;100.00;97835.28;5026318;28;20239;-70
2021/08/27 11:30:38;;;;;;;4.23;3.23;;;;;;;14.14;100.00;97844.91;5029321;28;20215;-71
2021/08/27 11:33:50;;;;;;;4.60;2.60;;;;;;;13.92;100.00;97858.19;5031116;28;20200;-69
2021/08/27 11:36:19;;;;;;;1.97;1.77;;;;;;;13.71;100.00;97853.66;5030765;28;20771;-69
2021/08/27 11:38:57;;;;;;;1.93;1.73;;;;;;;13.27;100.00;97850.06;5029680;28;20208;-69
2021/08/27 11:41:26;;;;;;;1.70;1.67;;;;;;;13.25;100.00;97852.91;5029933;28;20231;-70
2021/08/27 11:44:05;;;;;;;2.27;1.67;;;;;;;13.28;100.00;97844.53;5030114;28;21182;-70